sensor_id;sensor_type;location;lat;lon;timestamp;temperature;humidity
3542;DHT22;1785;47.388;8.538;2023-05-07T00:00:47;19.20;99.90
3542;DHT22;1785;47.388;8.538;2023-05-07T00:03:17;19.40;99.90
3542;DHT22;1785;47.388;8.538;2023-05-07T00:05:44;19.40;99.90
3542;DHT22;1785;47.388;8.538;2023-05-07T00:08:10;19.40;99.90
3542;DHT22;1785;47.388;8.538;2023-05-07T00:10:36;19.40;99.90
3542;DHT22;1785;47.388;8.538;2023-05-07T00:13:03;19.50;99.90
3542;DHT22;1785;47.388;8.538;2023-05-07T00:15:29;19.30;99.90
3542;DHT22;1785;47.388;8.538;2023-05-07T00:17:55;19.30;99.90
3542;DHT22;1785;47.388;8.538;2023-05-07T00:20:22;19.30;99.90
3542;DHT22;1785;47.388;8.538;2023-05-07T00:22:49;19.30;99.90
3542;DHT22;1785;47.388;8.538;2023-05-07T00:25:15;19.40;99.90
3542;DHT22;1785;47.388;8.538;2023-05-07T00:27:41;19.40;99.90
3542;DHT22;1785;47.388;8.538;2023-05-07T00:30:08;19.40;99.90
3542;DHT22;1785;47.388;8.538;2023-05-07T00:32:35;19.40;99.90
3542;DHT22;1785;47.388;8.538;2023-05-07T00:35:02;19.40;99.90
3542;DHT22;1785;47.388;8.538;2023-05-07T00:37:28;19.00;99.90
3542;DHT22;1785;47.388;8.538;2023-05-07T00:39:54;18.90;99.90
3542;DHT22;1785;47.388;8.538;2023-05-07T00:42:20;18.60;99.90
3542;DHT22;1785;47.388;8.538;2023-05-07T00:44:47;18.80;99.90
3542;DHT22;1785;47.388;8.538;2023-05-07T00:47:13;19.00;99.90
3542;DHT22;1785;47.388;8.538;2023-05-07T00:49:42;19.20;99.90
3542;DHT22;1785;47.388;8.538;2023-05-07T00:52:10;19.20;99.90
3542;DHT22;1785;47.388;8.538;2023-05-07T00:54:37;19.20;99.90
3542;DHT22;1785;47.388;8.538;2023-05-07T00:57:05;19.10;99.90
3542;DHT22;1785;47.388;8.538;2023-05-07T00:59:32;19.20;99.90
3542;DHT22;1785;47.388;8.538;2023-05-07T01:01:58;19.20;99.90
3542;DHT22;1785;47.388;8.538;2023-05-07T01:04:25;19.20;99.90
3542;DHT22;1785;47.388;8.538;2023-05-07T01:06:52;19.20;99.90
3542;DHT22;1785;47.388;8.538;2023-05-07T01:09:19;19.20;99.90
3542;DHT22;1785;47.388;8.538;2023-05-07T01:11:46;19.10;99.90
3542;DHT22;1785;47.388;8.538;2023-05-07T01:14:13;19.00;99.90
3542;DHT22;1785;47.388;8.538;2023-05-07T01:16:39;19.00;99.90
3542;DHT22;1785;47.388;8.538;2023-05-07T01:19:08;19.00;99.90
3542;DHT22;1785;47.388;8.538;2023-05-07T01:21:37;19.10;99.90
3542;DHT22;1785;47.388;8.538;2023-05-07T01:24:05;19.00;99.90
3542;DHT22;1785;47.388;8.538;2023-05-07T01:26:32;19.10;99.90
3542;DHT22;1785;47.388;8.538;2023-05-07T01:28:58;19.10;99.90
3542;DHT22;1785;47.388;8.538;2023-05-07T01:31:24;19.10;99.90
3542;DHT22;1785;47.388;8.538;2023-05-07T01:33:51;19.10;99.90
3542;DHT22;1785;47.388;8.538;2023-05-07T01:36:18;19.20;99.90
3542;DHT22;1785;47.388;8.538;2023-05-07T01:38:46;19.30;99.90
3542;DHT22;1785;47.388;8.538;2023-05-07T01:41:13;19.20;99.90
3542;DHT22;1785;47.388;8.538;2023-05-07T01:43:40;19.00;99.90
3542;DHT22;1785;47.388;8.538;2023-05-07T01:46:08;19.00;99.90
3542;DHT22;1785;47.388;8.538;2023-05-07T01:48:35;19.10;99.90
3542;DHT22;1785;47.388;8.538;2023-05-07T01:51:02;19.10;99.90
3542;DHT22;1785;47.388;8.538;2023-05-07T01:53:28;19.00;99.90
3542;DHT22;1785;47.388;8.538;2023-05-07T01:55:54;19.00;99.90
3542;DHT22;1785;47.388;8.538;2023-05-07T01:58:21;19.00;99.90
3542;DHT22;1785;47.388;8.538;2023-05-07T02:00:47;19.00;99.90
3542;DHT22;1785;47.388;8.538;2023-05-07T02:03:13;18.90;99.90
3542;DHT22;1785;47.388;8.538;2023-05-07T02:05:39;18.90;99.90
3542;DHT22;1785;47.388;8.538;2023-05-07T02:08:05;18.60;99.90
3542;DHT22;1785;47.388;8.538;2023-05-07T02:10:31;18.10;99.90
3542;DHT22;1785;47.388;8.538;2023-05-07T02:12:58;17.90;99.90
3542;DHT22;1785;47.388;8.538;2023-05-07T02:15:25;18.00;99.90
3542;DHT22;1785;47.388;8.538;2023-05-07T02:17:59;18.30;99.90
3542;DHT22;1785;47.388;8.538;2023-05-07T02:20:25;18.40;99.90
3542;DHT22;1785;47.388;8.538;2023-05-07T02:22:52;18.50;99.90
3542;DHT22;1785;47.388;8.538;2023-05-07T02:25:18;18.60;99.90
3542;DHT22;1785;47.388;8.538;2023-05-07T02:27:44;18.60;99.90
3542;DHT22;1785;47.388;8.538;2023-05-07T02:30:11;18.60;99.90
3542;DHT22;1785;47.388;8.538;2023-05-07T02:32:37;18.60;99.90
3542;DHT22;1785;47.388;8.538;2023-05-07T02:35:04;18.60;99.90
3542;DHT22;1785;47.388;8.538;2023-05-07T02:37:30;18.50;99.90
3542;DHT22;1785;47.388;8.538;2023-05-07T02:39:56;18.50;99.90
3542;DHT22;1785;47.388;8.538;2023-05-07T02:42:22;18.50;99.90
3542;DHT22;1785;47.388;8.538;2023-05-07T02:44:48;18.60;99.90
3542;DHT22;1785;47.388;8.538;2023-05-07T02:47:15;18.60;99.90
3542;DHT22;1785;47.388;8.538;2023-05-07T02:49:42;18.50;99.90
3542;DHT22;1785;47.388;8.538;2023-05-07T02:52:08;18.40;99.90
3542;DHT22;1785;47.388;8.538;2023-05-07T02:54:34;18.00;99.90
3542;DHT22;1785;47.388;8.538;2023-05-07T02:57:00;17.80;99.90
3542;DHT22;1785;47.388;8.538;2023-05-07T02:59:27;17.70;99.90
3542;DHT22;1785;47.388;8.538;2023-05-07T03:01:54;17.70;99.90
3542;DHT22;1785;47.388;8.538;2023-05-07T03:04:20;17.50;99.90
3542;DHT22;1785;47.388;8.538;2023-05-07T03:06:47;17.70;99.90
3542;DHT22;1785;47.388;8.538;2023-05-07T03:09:13;17.80;99.90
3542;DHT22;1785;47.388;8.538;2023-05-07T03:11:39;17.50;99.90
3542;DHT22;1785;47.388;8.538;2023-05-07T03:14:05;17.50;99.90
3542;DHT22;1785;47.388;8.538;2023-05-07T03:16:31;17.50;99.90
3542;DHT22;1785;47.388;8.538;2023-05-07T03:18:57;17.60;99.90
3542;DHT22;1785;47.388;8.538;2023-05-07T03:21:23;17.80;99.90
3542;DHT22;1785;47.388;8.538;2023-05-07T03:23:50;17.90;99.90
3542;DHT22;1785;47.388;8.538;2023-05-07T03:26:16;17.80;99.90
3542;DHT22;1785;47.388;8.538;2023-05-07T03:28:42;17.80;99.90
3542;DHT22;1785;47.388;8.538;2023-05-07T03:31:08;17.80;99.90
3542;DHT22;1785;47.388;8.538;2023-05-07T03:33:34;18.00;99.90
3542;DHT22;1785;47.388;8.538;2023-05-07T03:36:03;18.10;99.90
3542;DHT22;1785;47.388;8.538;2023-05-07T03:38:29;18.20;99.90
3542;DHT22;1785;47.388;8.538;2023-05-07T03:40:56;18.20;99.90
3542;DHT22;1785;47.388;8.538;2023-05-07T03:43:22;18.10;99.90
3542;DHT22;1785;47.388;8.538;2023-05-07T03:45:48;18.10;99.90
3542;DHT22;1785;47.388;8.538;2023-05-07T03:48:14;18.10;99.90
3542;DHT22;1785;47.388;8.538;2023-05-07T03:50:40;18.00;99.90
3542;DHT22;1785;47.388;8.538;2023-05-07T03:53:06;18.00;99.90
3542;DHT22;1785;47.388;8.538;2023-05-07T03:55:32;18.00;99.90
3542;DHT22;1785;47.388;8.538;2023-05-07T03:57:59;17.90;99.90
3542;DHT22;1785;47.388;8.538;2023-05-07T04:00:25;17.90;99.90
3542;DHT22;1785;47.388;8.538;2023-05-07T04:02:51;17.90;99.90
3542;DHT22;1785;47.388;8.538;2023-05-07T04:05:17;17.90;99.90
3542;DHT22;1785;47.388;8.538;2023-05-07T04:07:43;18.00;99.90
3542;DHT22;1785;47.388;8.538;2023-05-07T04:10:10;18.00;99.90
3542;DHT22;1785;47.388;8.538;2023-05-07T04:12:36;18.00;99.90
3542;DHT22;1785;47.388;8.538;2023-05-07T04:15:03;17.90;99.90
3542;DHT22;1785;47.388;8.538;2023-05-07T04:17:29;17.90;99.90
3542;DHT22;1785;47.388;8.538;2023-05-07T04:19:55;17.90;99.90
3542;DHT22;1785;47.388;8.538;2023-05-07T04:22:22;17.70;99.90
3542;DHT22;1785;47.388;8.538;2023-05-07T04:24:48;17.20;99.90
3542;DHT22;1785;47.388;8.538;2023-05-07T04:27:13;17.10;99.90
3542;DHT22;1785;47.388;8.538;2023-05-07T04:29:40;17.00;99.90
3542;DHT22;1785;47.388;8.538;2023-05-07T04:32:08;16.50;99.90
3542;DHT22;1785;47.388;8.538;2023-05-07T04:34:34;16.40;99.90
3542;DHT22;1785;47.388;8.538;2023-05-07T04:37:00;16.60;99.90
3542;DHT22;1785;47.388;8.538;2023-05-07T04:39:27;16.60;99.90
3542;DHT22;1785;47.388;8.538;2023-05-07T04:41:53;16.30;99.90
3542;DHT22;1785;47.388;8.538;2023-05-07T04:44:19;16.40;99.90
3542;DHT22;1785;47.388;8.538;2023-05-07T04:46:45;16.40;99.90
3542;DHT22;1785;47.388;8.538;2023-05-07T04:49:11;16.30;99.90
3542;DHT22;1785;47.388;8.538;2023-05-07T04:51:37;16.40;99.90
3542;DHT22;1785;47.388;8.538;2023-05-07T04:54:04;16.50;99.90
3542;DHT22;1785;47.388;8.538;2023-05-07T04:56:30;16.50;99.90
3542;DHT22;1785;47.388;8.538;2023-05-07T04:58:56;16.30;99.90
3542;DHT22;1785;47.388;8.538;2023-05-07T05:01:22;16.40;99.90
3542;DHT22;1785;47.388;8.538;2023-05-07T05:03:48;16.60;99.90
3542;DHT22;1785;47.388;8.538;2023-05-07T05:06:14;16.80;99.90
3542;DHT22;1785;47.388;8.538;2023-05-07T05:08:40;16.60;99.90
3542;DHT22;1785;47.388;8.538;2023-05-07T05:11:06;16.60;99.90
3542;DHT22;1785;47.388;8.538;2023-05-07T05:13:33;16.70;99.90
3542;DHT22;1785;47.388;8.538;2023-05-07T05:15:59;16.60;99.90
3542;DHT22;1785;47.388;8.538;2023-05-07T05:18:25;16.50;99.90
3542;DHT22;1785;47.388;8.538;2023-05-07T05:20:51;16.70;99.90
3542;DHT22;1785;47.388;8.538;2023-05-07T05:23:18;16.90;99.90
3542;DHT22;1785;47.388;8.538;2023-05-07T05:25:44;17.00;99.90
3542;DHT22;1785;47.388;8.538;2023-05-07T05:28:10;16.80;99.90
3542;DHT22;1785;47.388;8.538;2023-05-07T05:30:36;17.00;99.90
3542;DHT22;1785;47.388;8.538;2023-05-07T05:33:02;16.90;99.90
3542;DHT22;1785;47.388;8.538;2023-05-07T05:35:29;16.70;99.90
3542;DHT22;1785;47.388;8.538;2023-05-07T05:37:55;16.60;99.90
3542;DHT22;1785;47.388;8.538;2023-05-07T05:40:22;16.60;99.90
3542;DHT22;1785;47.388;8.538;2023-05-07T05:42:48;16.80;99.90
3542;DHT22;1785;47.388;8.538;2023-05-07T05:45:14;16.90;99.90
3542;DHT22;1785;47.388;8.538;2023-05-07T05:47:41;16.80;99.90
3542;DHT22;1785;47.388;8.538;2023-05-07T05:50:07;16.80;99.90
3542;DHT22;1785;47.388;8.538;2023-05-07T05:52:33;16.40;99.90
3542;DHT22;1785;47.388;8.538;2023-05-07T05:54:59;16.40;99.90
3542;DHT22;1785;47.388;8.538;2023-05-07T05:57:26;16.30;99.90
3542;DHT22;1785;47.388;8.538;2023-05-07T05:59:52;16.00;99.90
3542;DHT22;1785;47.388;8.538;2023-05-07T06:02:18;15.90;99.90
3542;DHT22;1785;47.388;8.538;2023-05-07T06:04:44;15.80;99.90
3542;DHT22;1785;47.388;8.538;2023-05-07T06:07:10;16.20;99.90
3542;DHT22;1785;47.388;8.538;2023-05-07T06:09:36;16.60;99.90
3542;DHT22;1785;47.388;8.538;2023-05-07T06:12:03;16.60;99.90
3542;DHT22;1785;47.388;8.538;2023-05-07T06:14:29;16.50;99.90
3542;DHT22;1785;47.388;8.538;2023-05-07T06:16:57;16.50;99.90
3542;DHT22;1785;47.388;8.538;2023-05-07T06:19:23;16.60;99.90
3542;DHT22;1785;47.388;8.538;2023-05-07T06:21:49;16.50;99.90
3542;DHT22;1785;47.388;8.538;2023-05-07T06:24:15;16.40;99.90
3542;DHT22;1785;47.388;8.538;2023-05-07T06:26:41;16.50;99.90
3542;DHT22;1785;47.388;8.538;2023-05-07T06:29:07;16.50;99.90
3542;DHT22;1785;47.388;8.538;2023-05-07T06:31:34;16.30;99.90
3542;DHT22;1785;47.388;8.538;2023-05-07T06:34:00;16.40;99.90
3542;DHT22;1785;47.388;8.538;2023-05-07T06:36:27;16.40;99.90
3542;DHT22;1785;47.388;8.538;2023-05-07T06:38:53;16.50;99.90
3542;DHT22;1785;47.388;8.538;2023-05-07T06:41:20;16.40;99.90
3542;DHT22;1785;47.388;8.538;2023-05-07T06:43:47;16.30;99.90
3542;DHT22;1785;47.388;8.538;2023-05-07T06:46:13;16.20;99.90
3542;DHT22;1785;47.388;8.538;2023-05-07T06:48:40;16.20;99.90
3542;DHT22;1785;47.388;8.538;2023-05-07T06:51:06;16.20;99.90
3542;DHT22;1785;47.388;8.538;2023-05-07T06:53:32;16.40;99.90
3542;DHT22;1785;47.388;8.538;2023-05-07T06:55:58;16.40;99.90
3542;DHT22;1785;47.388;8.538;2023-05-07T06:58:24;16.40;99.90
3542;DHT22;1785;47.388;8.538;2023-05-07T07:00:50;16.40;99.90
3542;DHT22;1785;47.388;8.538;2023-05-07T07:03:16;16.50;99.90
3542;DHT22;1785;47.388;8.538;2023-05-07T07:05:43;17.00;99.90
3542;DHT22;1785;47.388;8.538;2023-05-07T07:08:10;17.20;99.90
3542;DHT22;1785;47.388;8.538;2023-05-07T07:10:36;17.40;99.90
3542;DHT22;1785;47.388;8.538;2023-05-07T07:13:02;17.70;99.90
3542;DHT22;1785;47.388;8.538;2023-05-07T07:15:28;17.90;99.90
3542;DHT22;1785;47.388;8.538;2023-05-07T07:17:54;17.90;99.90
3542;DHT22;1785;47.388;8.538;2023-05-07T07:20:21;18.10;99.90
3542;DHT22;1785;47.388;8.538;2023-05-07T07:22:48;17.70;99.90
3542;DHT22;1785;47.388;8.538;2023-05-07T07:25:14;17.60;99.90
3542;DHT22;1785;47.388;8.538;2023-05-07T07:27:40;18.10;99.90
3542;DHT22;1785;47.388;8.538;2023-05-07T07:30:07;17.70;99.90
3542;DHT22;1785;47.388;8.538;2023-05-07T07:32:34;17.60;99.90
3542;DHT22;1785;47.388;8.538;2023-05-07T07:35:00;17.60;99.90
3542;DHT22;1785;47.388;8.538;2023-05-07T07:37:27;17.40;99.90
3542;DHT22;1785;47.388;8.538;2023-05-07T07:39:54;17.20;99.90
3542;DHT22;1785;47.388;8.538;2023-05-07T07:42:20;17.30;99.90
3542;DHT22;1785;47.388;8.538;2023-05-07T07:44:46;17.70;99.90
3542;DHT22;1785;47.388;8.538;2023-05-07T07:47:12;18.00;99.90
3542;DHT22;1785;47.388;8.538;2023-05-07T07:49:38;18.40;99.90
3542;DHT22;1785;47.388;8.538;2023-05-07T07:52:05;18.50;99.90
3542;DHT22;1785;47.388;8.538;2023-05-07T07:54:31;18.90;99.90
3542;DHT22;1785;47.388;8.538;2023-05-07T07:56:58;19.00;99.90
3542;DHT22;1785;47.388;8.538;2023-05-07T07:59:24;19.20;99.90
3542;DHT22;1785;47.388;8.538;2023-05-07T08:01:50;19.50;99.90
3542;DHT22;1785;47.388;8.538;2023-05-07T08:04:18;19.80;99.90
3542;DHT22;1785;47.388;8.538;2023-05-07T08:06:45;19.90;99.90
3542;DHT22;1785;47.388;8.538;2023-05-07T08:09:11;19.80;99.90
3542;DHT22;1785;47.388;8.538;2023-05-07T08:11:38;19.50;99.90
3542;DHT22;1785;47.388;8.538;2023-05-07T08:14:05;19.60;99.90
3542;DHT22;1785;47.388;8.538;2023-05-07T08:16:31;19.80;99.90
3542;DHT22;1785;47.388;8.538;2023-05-07T08:18:57;19.90;99.90
3542;DHT22;1785;47.388;8.538;2023-05-07T08:21:23;20.10;99.90
3542;DHT22;1785;47.388;8.538;2023-05-07T08:23:49;20.10;99.90
3542;DHT22;1785;47.388;8.538;2023-05-07T08:26:15;20.00;99.90
3542;DHT22;1785;47.388;8.538;2023-05-07T08:28:41;20.10;99.90
3542;DHT22;1785;47.388;8.538;2023-05-07T08:31:08;20.20;99.90
3542;DHT22;1785;47.388;8.538;2023-05-07T08:33:35;20.50;99.90
3542;DHT22;1785;47.388;8.538;2023-05-07T08:36:01;20.50;99.90
3542;DHT22;1785;47.388;8.538;2023-05-07T08:38:27;20.50;99.90
3542;DHT22;1785;47.388;8.538;2023-05-07T08:40:53;20.20;99.90
3542;DHT22;1785;47.388;8.538;2023-05-07T08:43:19;20.30;99.90
3542;DHT22;1785;47.388;8.538;2023-05-07T08:45:49;20.40;99.90
3542;DHT22;1785;47.388;8.538;2023-05-07T08:48:21;20.50;99.90
3542;DHT22;1785;47.388;8.538;2023-05-07T08:50:47;20.60;99.90
3542;DHT22;1785;47.388;8.538;2023-05-07T08:53:16;20.60;99.90
3542;DHT22;1785;47.388;8.538;2023-05-07T08:55:42;20.60;99.90
3542;DHT22;1785;47.388;8.538;2023-05-07T08:58:08;20.60;99.90
3542;DHT22;1785;47.388;8.538;2023-05-07T09:00:36;20.50;99.90
3542;DHT22;1785;47.388;8.538;2023-05-07T09:03:02;20.60;99.90
3542;DHT22;1785;47.388;8.538;2023-05-07T09:05:29;20.60;99.90
3542;DHT22;1785;47.388;8.538;2023-05-07T09:07:58;20.70;99.90
3542;DHT22;1785;47.388;8.538;2023-05-07T09:10:25;21.00;99.90
3542;DHT22;1785;47.388;8.538;2023-05-07T09:12:51;21.40;99.90
3542;DHT22;1785;47.388;8.538;2023-05-07T09:15:18;21.30;99.90
3542;DHT22;1785;47.388;8.538;2023-05-07T09:17:44;21.50;99.90
3542;DHT22;1785;47.388;8.538;2023-05-07T09:20:11;21.50;99.90
3542;DHT22;1785;47.388;8.538;2023-05-07T09:22:38;21.70;99.90
3542;DHT22;1785;47.388;8.538;2023-05-07T09:25:05;21.50;99.90
3542;DHT22;1785;47.388;8.538;2023-05-07T09:27:31;21.40;99.90
3542;DHT22;1785;47.388;8.538;2023-05-07T09:29:57;21.50;99.90
3542;DHT22;1785;47.388;8.538;2023-05-07T09:32:25;21.40;99.90
3542;DHT22;1785;47.388;8.538;2023-05-07T09:34:52;21.30;99.90
3542;DHT22;1785;47.388;8.538;2023-05-07T09:37:18;21.40;99.90
3542;DHT22;1785;47.388;8.538;2023-05-07T09:39:47;21.60;99.90
3542;DHT22;1785;47.388;8.538;2023-05-07T09:42:13;21.70;99.90
3542;DHT22;1785;47.388;8.538;2023-05-07T09:44:41;21.50;99.90
3542;DHT22;1785;47.388;8.538;2023-05-07T09:47:10;21.40;99.90
3542;DHT22;1785;47.388;8.538;2023-05-07T09:49:39;21.40;99.90
3542;DHT22;1785;47.388;8.538;2023-05-07T09:52:07;21.30;99.90
3542;DHT22;1785;47.388;8.538;2023-05-07T09:54:36;21.40;99.90
3542;DHT22;1785;47.388;8.538;2023-05-07T09:57:04;21.50;99.90
3542;DHT22;1785;47.388;8.538;2023-05-07T09:59:32;21.50;99.90
3542;DHT22;1785;47.388;8.538;2023-05-07T10:02:00;21.70;99.90
3542;DHT22;1785;47.388;8.538;2023-05-07T10:04:27;22.00;99.90
3542;DHT22;1785;47.388;8.538;2023-05-07T10:06:53;22.00;99.90
3542;DHT22;1785;47.388;8.538;2023-05-07T10:09:21;22.10;99.90
3542;DHT22;1785;47.388;8.538;2023-05-07T10:11:49;22.00;99.90
3542;DHT22;1785;47.388;8.538;2023-05-07T10:14:16;21.90;99.90
3542;DHT22;1785;47.388;8.538;2023-05-07T10:16:43;22.00;99.90
3542;DHT22;1785;47.388;8.538;2023-05-07T10:19:09;22.10;99.90
3542;DHT22;1785;47.388;8.538;2023-05-07T10:21:36;22.40;99.90
3542;DHT22;1785;47.388;8.538;2023-05-07T10:24:05;22.20;99.90
3542;DHT22;1785;47.388;8.538;2023-05-07T10:26:35;22.10;99.90
3542;DHT22;1785;47.388;8.538;2023-05-07T10:29:06;22.20;99.90
3542;DHT22;1785;47.388;8.538;2023-05-07T10:31:50;22.20;99.90
3542;DHT22;1785;47.388;8.538;2023-05-07T10:34:21;22.30;99.90
3542;DHT22;1785;47.388;8.538;2023-05-07T10:36:49;22.20;99.90
3542;DHT22;1785;47.388;8.538;2023-05-07T10:39:17;22.30;99.90
3542;DHT22;1785;47.388;8.538;2023-05-07T10:41:43;22.30;99.90
3542;DHT22;1785;47.388;8.538;2023-05-07T10:44:10;22.10;99.90
3542;DHT22;1785;47.388;8.538;2023-05-07T10:46:37;22.10;99.90
3542;DHT22;1785;47.388;8.538;2023-05-07T10:49:12;22.10;99.90
3542;DHT22;1785;47.388;8.538;2023-05-07T10:51:39;21.90;99.90
3542;DHT22;1785;47.388;8.538;2023-05-07T10:54:22;22.00;99.90
3542;DHT22;1785;47.388;8.538;2023-05-07T10:56:50;21.90;99.90
3542;DHT22;1785;47.388;8.538;2023-05-07T10:59:34;22.10;99.90
3542;DHT22;1785;47.388;8.538;2023-05-07T11:02:06;22.20;99.90
3542;DHT22;1785;47.388;8.538;2023-05-07T11:04:34;22.30;99.90
3542;DHT22;1785;47.388;8.538;2023-05-07T11:07:28;22.30;99.90
3542;DHT22;1785;47.388;8.538;2023-05-07T11:10:05;22.50;99.90
3542;DHT22;1785;47.388;8.538;2023-05-07T11:12:52;22.20;99.90
3542;DHT22;1785;47.388;8.538;2023-05-07T11:15:38;22.20;99.90
3542;DHT22;1785;47.388;8.538;2023-05-07T11:18:05;22.40;99.90
3542;DHT22;1785;47.388;8.538;2023-05-07T11:21:05;22.60;99.90
3542;DHT22;1785;47.388;8.538;2023-05-07T11:23:56;22.80;99.90
3542;DHT22;1785;47.388;8.538;2023-05-07T11:26:27;22.90;99.90
3542;DHT22;1785;47.388;8.538;2023-05-07T11:28:53;22.90;99.90
3542;DHT22;1785;47.388;8.538;2023-05-07T11:31:21;23.00;99.90
3542;DHT22;1785;47.388;8.538;2023-05-07T11:33:48;23.20;99.90
3542;DHT22;1785;47.388;8.538;2023-05-07T11:36:15;23.20;99.90
3542;DHT22;1785;47.388;8.538;2023-05-07T11:38:41;23.20;99.90
3542;DHT22;1785;47.388;8.538;2023-05-07T11:41:07;23.10;99.90
3542;DHT22;1785;47.388;8.538;2023-05-07T11:43:34;22.70;99.90
3542;DHT22;1785;47.388;8.538;2023-05-07T11:46:15;22.10;99.90
3542;DHT22;1785;47.388;8.538;2023-05-07T11:49:00;21.70;99.90
3542;DHT22;1785;47.388;8.538;2023-05-07T11:51:28;21.80;99.90
3542;DHT22;1785;47.388;8.538;2023-05-07T11:53:54;22.20;99.90
3542;DHT22;1785;47.388;8.538;2023-05-07T11:56:20;22.30;99.90
3542;DHT22;1785;47.388;8.538;2023-05-07T11:58:47;22.30;99.90
3542;DHT22;1785;47.388;8.538;2023-05-07T12:01:14;22.30;99.90
3542;DHT22;1785;47.388;8.538;2023-05-07T12:03:42;22.30;99.90
3542;DHT22;1785;47.388;8.538;2023-05-07T12:06:10;22.30;99.90
3542;DHT22;1785;47.388;8.538;2023-05-07T12:08:39;22.30;99.90
3542;DHT22;1785;47.388;8.538;2023-05-07T12:11:08;22.30;99.90
3542;DHT22;1785;47.388;8.538;2023-05-07T12:13:35;22.70;99.90
3542;DHT22;1785;47.388;8.538;2023-05-07T12:16:01;22.50;99.90
3542;DHT22;1785;47.388;8.538;2023-05-07T12:18:29;22.50;99.90
3542;DHT22;1785;47.388;8.538;2023-05-07T12:20:55;22.80;99.90
3542;DHT22;1785;47.388;8.538;2023-05-07T12:23:22;22.70;99.90
3542;DHT22;1785;47.388;8.538;2023-05-07T12:25:49;22.70;99.90
3542;DHT22;1785;47.388;8.538;2023-05-07T12:28:16;22.90;99.90
3542;DHT22;1785;47.388;8.538;2023-05-07T12:30:44;22.90;99.90
3542;DHT22;1785;47.388;8.538;2023-05-07T12:33:10;23.10;99.90
3542;DHT22;1785;47.388;8.538;2023-05-07T12:38:17;23.50;99.90
3542;DHT22;1785;47.388;8.538;2023-05-07T12:40:45;23.60;99.90
3542;DHT22;1785;47.388;8.538;2023-05-07T12:43:17;23.40;99.90
3542;DHT22;1785;47.388;8.538;2023-05-07T12:45:44;22.80;99.90
3542;DHT22;1785;47.388;8.538;2023-05-07T12:48:10;22.80;99.90
3542;DHT22;1785;47.388;8.538;2023-05-07T12:50:36;22.60;99.90
3542;DHT22;1785;47.388;8.538;2023-05-07T12:53:03;22.60;99.90
3542;DHT22;1785;47.388;8.538;2023-05-07T12:55:32;22.60;99.90
3542;DHT22;1785;47.388;8.538;2023-05-07T12:58:01;22.60;99.90
3542;DHT22;1785;47.388;8.538;2023-05-07T13:00:35;22.80;99.90
3542;DHT22;1785;47.388;8.538;2023-05-07T13:03:02;22.80;99.90
3542;DHT22;1785;47.388;8.538;2023-05-07T13:05:28;22.80;99.90
3542;DHT22;1785;47.388;8.538;2023-05-07T13:07:54;22.80;99.90
3542;DHT22;1785;47.388;8.538;2023-05-07T13:10:21;22.80;99.90
3542;DHT22;1785;47.388;8.538;2023-05-07T13:12:47;22.80;99.90
3542;DHT22;1785;47.388;8.538;2023-05-07T13:15:13;23.10;99.90
3542;DHT22;1785;47.388;8.538;2023-05-07T13:17:40;23.10;99.90
3542;DHT22;1785;47.388;8.538;2023-05-07T13:20:08;23.00;99.90
3542;DHT22;1785;47.388;8.538;2023-05-07T13:22:34;23.20;99.90
3542;DHT22;1785;47.388;8.538;2023-05-07T13:25:00;22.80;99.90
3542;DHT22;1785;47.388;8.538;2023-05-07T13:27:26;22.50;99.90
3542;DHT22;1785;47.388;8.538;2023-05-07T13:29:53;22.50;99.90
3542;DHT22;1785;47.388;8.538;2023-05-07T13:32:19;22.70;99.90
3542;DHT22;1785;47.388;8.538;2023-05-07T13:34:46;22.50;99.90
3542;DHT22;1785;47.388;8.538;2023-05-07T13:37:12;22.60;99.90
3542;DHT22;1785;47.388;8.538;2023-05-07T13:39:38;22.60;99.90
3542;DHT22;1785;47.388;8.538;2023-05-07T13:42:04;22.80;99.90
3542;DHT22;1785;47.388;8.538;2023-05-07T13:44:30;23.20;99.90
3542;DHT22;1785;47.388;8.538;2023-05-07T13:46:56;23.50;99.90
3542;DHT22;1785;47.388;8.538;2023-05-07T13:49:22;23.90;99.90
3542;DHT22;1785;47.388;8.538;2023-05-07T13:51:50;23.90;99.90
3542;DHT22;1785;47.388;8.538;2023-05-07T13:54:16;23.90;99.90
3542;DHT22;1785;47.388;8.538;2023-05-07T13:56:42;23.70;99.90
3542;DHT22;1785;47.388;8.538;2023-05-07T13:59:08;23.60;99.90
3542;DHT22;1785;47.388;8.538;2023-05-07T14:01:34;23.30;99.90
3542;DHT22;1785;47.388;8.538;2023-05-07T14:04:00;22.90;99.90
3542;DHT22;1785;47.388;8.538;2023-05-07T14:06:27;22.70;99.90
3542;DHT22;1785;47.388;8.538;2023-05-07T14:08:53;22.30;99.90
3542;DHT22;1785;47.388;8.538;2023-05-07T14:11:20;22.10;99.90
3542;DHT22;1785;47.388;8.538;2023-05-07T14:13:46;22.00;99.90
3542;DHT22;1785;47.388;8.538;2023-05-07T14:16:12;21.70;99.90
3542;DHT22;1785;47.388;8.538;2023-05-07T14:18:38;21.70;99.90
3542;DHT22;1785;47.388;8.538;2023-05-07T14:21:05;21.80;99.90
3542;DHT22;1785;47.388;8.538;2023-05-07T14:23:32;21.50;99.90
3542;DHT22;1785;47.388;8.538;2023-05-07T14:25:59;21.20;99.90
3542;DHT22;1785;47.388;8.538;2023-05-07T14:28:25;21.00;99.90
3542;DHT22;1785;47.388;8.538;2023-05-07T14:30:51;20.90;99.90
3542;DHT22;1785;47.388;8.538;2023-05-07T14:33:17;21.00;99.90
3542;DHT22;1785;47.388;8.538;2023-05-07T14:35:43;20.70;99.90
3542;DHT22;1785;47.388;8.538;2023-05-07T14:38:13;20.50;99.90
3542;DHT22;1785;47.388;8.538;2023-05-07T14:40:39;20.50;99.90
3542;DHT22;1785;47.388;8.538;2023-05-07T14:43:06;20.30;99.90
3542;DHT22;1785;47.388;8.538;2023-05-07T14:45:32;20.40;99.90
3542;DHT22;1785;47.388;8.538;2023-05-07T14:47:58;20.40;99.90
3542;DHT22;1785;47.388;8.538;2023-05-07T14:50:24;20.60;99.90
3542;DHT22;1785;47.388;8.538;2023-05-07T14:52:50;20.40;99.90
3542;DHT22;1785;47.388;8.538;2023-05-07T14:55:16;20.40;99.90
3542;DHT22;1785;47.388;8.538;2023-05-07T14:57:42;20.50;99.90
3542;DHT22;1785;47.388;8.538;2023-05-07T15:00:10;20.60;99.90
3542;DHT22;1785;47.388;8.538;2023-05-07T15:02:37;20.60;99.90
3542;DHT22;1785;47.388;8.538;2023-05-07T15:05:03;20.40;99.90
3542;DHT22;1785;47.388;8.538;2023-05-07T15:07:29;20.20;99.90
3542;DHT22;1785;47.388;8.538;2023-05-07T15:09:58;20.00;99.90
3542;DHT22;1785;47.388;8.538;2023-05-07T15:12:24;19.90;99.90
3542;DHT22;1785;47.388;8.538;2023-05-07T15:14:50;19.80;99.90
3542;DHT22;1785;47.388;8.538;2023-05-07T15:17:17;19.60;99.90
3542;DHT22;1785;47.388;8.538;2023-05-07T15:19:43;19.70;99.90
3542;DHT22;1785;47.388;8.538;2023-05-07T15:22:09;19.60;99.90
3542;DHT22;1785;47.388;8.538;2023-05-07T15:24:35;19.40;99.90
3542;DHT22;1785;47.388;8.538;2023-05-07T15:27:01;19.40;99.90
3542;DHT22;1785;47.388;8.538;2023-05-07T15:29:28;19.30;99.90
3542;DHT22;1785;47.388;8.538;2023-05-07T15:31:54;19.20;99.90
3542;DHT22;1785;47.388;8.538;2023-05-07T15:34:21;19.00;99.90
3542;DHT22;1785;47.388;8.538;2023-05-07T15:36:49;19.00;99.90
3542;DHT22;1785;47.388;8.538;2023-05-07T15:39:15;18.90;99.90
3542;DHT22;1785;47.388;8.538;2023-05-07T15:41:41;19.00;99.90
3542;DHT22;1785;47.388;8.538;2023-05-07T15:44:08;19.10;99.90
3542;DHT22;1785;47.388;8.538;2023-05-07T15:46:34;19.20;99.90
3542;DHT22;1785;47.388;8.538;2023-05-07T15:49:01;19.10;99.90
3542;DHT22;1785;47.388;8.538;2023-05-07T15:51:30;19.30;99.90
3542;DHT22;1785;47.388;8.538;2023-05-07T15:53:56;19.20;99.90
3542;DHT22;1785;47.388;8.538;2023-05-07T15:56:22;19.20;99.90
3542;DHT22;1785;47.388;8.538;2023-05-07T15:58:49;19.30;99.90
3542;DHT22;1785;47.388;8.538;2023-05-07T16:01:15;19.60;99.90
3542;DHT22;1785;47.388;8.538;2023-05-07T16:03:41;19.30;99.90